sensor_id;sensor_type;location;lat;lon;timestamp;pressure;altitude;pressure_sealevel;temperature;humidity
80149;BME280;69473;42.426;26.644;2023-05-23T00:00:20;98618.88;;;15.38;67.68
80149;BME280;69473;42.426;26.644;2023-05-23T00:02:46;98612.13;;;15.31;67.91
80149;BME280;69473;42.426;26.644;2023-05-23T00:05:12;98605.13;;;15.32;67.26
80149;BME280;69473;42.426;26.644;2023-05-23T00:07:40;98627.47;;;15.42;67.06
80149;BME280;69473;42.426;26.644;2023-05-23T00:10:05;98619.69;;;15.40;67.01
80149;BME280;69473;42.426;26.644;2023-05-23T00:12:31;98617.09;;;15.39;67.38
80149;BME280;69473;42.426;26.644;2023-05-23T00:14:58;98623.13;;;15.42;67.27
80149;BME280;69473;42.426;26.644;2023-05-23T00:17:23;98623.22;;;15.39;67.44
80149;BME280;69473;42.426;26.644;2023-05-23T00:19:50;98624.22;;;15.34;67.25
80149;BME280;69473;42.426;26.644;2023-05-23T00:22:15;98613.88;;;15.31;67.60
80149;BME280;69473;42.426;26.644;2023-05-23T00:24:42;98613.97;;;15.28;67.14
80149;BME280;69473;42.426;26.644;2023-05-23T00:27:07;98612.09;;;15.33;67.43
80149;BME280;69473;42.426;26.644;2023-05-23T00:29:33;98615.38;;;15.39;66.97
80149;BME280;69473;42.426;26.644;2023-05-23T00:31:58;98610.91;;;15.43;66.59
80149;BME280;69473;42.426;26.644;2023-05-23T00:34:24;98603.00;;;15.46;66.55
80149;BME280;69473;42.426;26.644;2023-05-23T00:36:49;98595.34;;;15.40;67.09
80149;BME280;69473;42.426;26.644;2023-05-23T00:39:15;98589.97;;;15.44;66.58
80149;BME280;69473;42.426;26.644;2023-05-23T00:41:46;98591.72;;;15.45;66.91
80149;BME280;69473;42.426;26.644;2023-05-23T00:44:12;98592.66;;;15.41;66.85
80149;BME280;69473;42.426;26.644;2023-05-23T00:46:38;98592.84;;;15.35;67.49
80149;BME280;69473;42.426;26.644;2023-05-23T00:49:04;98590.16;;;15.38;67.24
80149;BME280;69473;42.426;26.644;2023-05-23T00:51:29;98595.28;;;15.41;66.72
80149;BME280;69473;42.426;26.644;2023-05-23T00:53:56;98593.59;;;15.40;66.81
80149;BME280;69473;42.426;26.644;2023-05-23T00:56:23;98590.97;;;15.40;67.42
80149;BME280;69473;42.426;26.644;2023-05-23T00:58:51;98593.22;;;15.53;66.45
80149;BME280;69473;42.426;26.644;2023-05-23T01:01:17;98591.53;;;15.52;66.69
80149;BME280;69473;42.426;26.644;2023-05-23T01:03:43;98582.38;;;15.68;66.41
80149;BME280;69473;42.426;26.644;2023-05-23T01:06:10;98589.00;;;15.78;65.70
80149;BME280;69473;42.426;26.644;2023-05-23T01:08:36;98586.75;;;15.67;65.93
80149;BME280;69473;42.426;26.644;2023-05-23T01:11:14;98580.19;;;15.51;66.78
80149;BME280;69473;42.426;26.644;2023-05-23T01:13:55;98583.91;;;15.44;66.81
80149;BME280;69473;42.426;26.644;2023-05-23T01:16:46;98577.66;;;15.50;66.92
80149;BME280;69473;42.426;26.644;2023-05-23T01:24:56;98583.88;;;15.75;66.10
80149;BME280;69473;42.426;26.644;2023-05-23T01:27:48;98583.69;;;15.81;65.81
80149;BME280;69473;42.426;26.644;2023-05-23T01:30:18;98578.00;;;15.97;65.24
80149;BME280;69473;42.426;26.644;2023-05-23T01:32:47;98575.00;;;16.09;64.92
80149;BME280;69473;42.426;26.644;2023-05-23T01:35:18;98577.91;;;16.00;65.40
80149;BME280;69473;42.426;26.644;2023-05-23T01:37:46;98581.25;;;16.05;65.08
80149;BME280;69473;42.426;26.644;2023-05-23T01:40:12;98579.41;;;16.07;64.88
80149;BME280;69473;42.426;26.644;2023-05-23T01:42:38;98584.13;;;15.96;65.09
80149;BME280;69473;42.426;26.644;2023-05-23T01:45:04;98584.41;;;15.86;65.79
80149;BME280;69473;42.426;26.644;2023-05-23T01:47:31;98587.59;;;15.96;65.32
80149;BME280;69473;42.426;26.644;2023-05-23T01:49:58;98592.44;;;16.08;65.12
80149;BME280;69473;42.426;26.644;2023-05-23T01:52:25;98579.59;;;16.01;65.29
80149;BME280;69473;42.426;26.644;2023-05-23T01:54:51;98581.44;;;15.99;65.26
80149;BME280;69473;42.426;26.644;2023-05-23T01:57:19;98577.72;;;16.06;65.25
80149;BME280;69473;42.426;26.644;2023-05-23T01:59:44;98591.69;;;16.05;64.64
80149;BME280;69473;42.426;26.644;2023-05-23T02:02:10;98583.97;;;16.00;65.03
80149;BME280;69473;42.426;26.644;2023-05-23T02:04:36;98583.75;;;16.08;64.88
80149;BME280;69473;42.426;26.644;2023-05-23T02:07:01;98585.47;;;16.09;64.58
80149;BME280;69473;42.426;26.644;2023-05-23T02:09:27;98589.88;;;16.07;64.49
80149;BME280;69473;42.426;26.644;2023-05-23T02:11:52;98586.38;;;16.08;64.63
80149;BME280;69473;42.426;26.644;2023-05-23T02:14:18;98591.22;;;16.20;63.65
80149;BME280;69473;42.426;26.644;2023-05-23T02:16:44;98582.84;;;16.09;64.32
80149;BME280;69473;42.426;26.644;2023-05-23T02:19:09;98586.38;;;16.08;64.34
80149;BME280;69473;42.426;26.644;2023-05-23T02:21:35;98595.94;;;16.07;64.44
80149;BME280;69473;42.426;26.644;2023-05-23T02:24:01;98587.97;;;16.12;64.58
80149;BME280;69473;42.426;26.644;2023-05-23T02:26:26;98588.34;;;16.00;64.58
80149;BME280;69473;42.426;26.644;2023-05-23T02:28:52;98605.63;;;16.04;64.52
80149;BME280;69473;42.426;26.644;2023-05-23T02:31:18;98600.22;;;16.10;64.33
80149;BME280;69473;42.426;26.644;2023-05-23T02:33:43;98601.16;;;16.07;64.19
80149;BME280;69473;42.426;26.644;2023-05-23T02:36:09;98598.56;;;16.07;64.49
80149;BME280;69473;42.426;26.644;2023-05-23T02:38:34;98598.81;;;16.00;64.63
80149;BME280;69473;42.426;26.644;2023-05-23T02:41:00;98595.28;;;16.01;64.35
80149;BME280;69473;42.426;26.644;2023-05-23T02:43:25;98591.59;;;16.08;64.06
80149;BME280;69473;42.426;26.644;2023-05-23T02:45:51;98586.38;;;16.08;63.61
80149;BME280;69473;42.426;26.644;2023-05-23T02:48:16;98584.63;;;16.07;63.89
80149;BME280;69473;42.426;26.644;2023-05-23T02:50:42;98593.97;;;16.15;63.51
80149;BME280;69473;42.426;26.644;2023-05-23T02:53:07;98595.00;;;16.10;63.75
80149;BME280;69473;42.426;26.644;2023-05-23T02:55:33;98602.06;;;16.08;64.30
80149;BME280;69473;42.426;26.644;2023-05-23T02:57:58;98602.53;;;15.92;64.77
80149;BME280;69473;42.426;26.644;2023-05-23T03:00:24;98590.72;;;16.07;63.62
80149;BME280;69473;42.426;26.644;2023-05-23T03:02:49;98593.28;;;16.09;63.61
80149;BME280;69473;42.426;26.644;2023-05-23T03:05:15;98598.03;;;16.24;63.20
80149;BME280;69473;42.426;26.644;2023-05-23T03:07:41;98593.53;;;16.29;62.25
80149;BME280;69473;42.426;26.644;2023-05-23T03:10:08;98594.59;;;16.22;63.15
80149;BME280;69473;42.426;26.644;2023-05-23T03:12:34;98594.19;;;16.36;61.86
80149;BME280;69473;42.426;26.644;2023-05-23T03:14:59;98597.94;;;16.27;63.00
80149;BME280;69473;42.426;26.644;2023-05-23T03:17:25;98600.03;;;16.16;63.21
80149;BME280;69473;42.426;26.644;2023-05-23T03:19:50;98593.75;;;16.22;62.23
80149;BME280;69473;42.426;26.644;2023-05-23T03:22:16;98596.25;;;16.26;62.32
80149;BME280;69473;42.426;26.644;2023-05-23T03:24:42;98594.59;;;16.22;62.64
80149;BME280;69473;42.426;26.644;2023-05-23T03:27:07;98598.22;;;16.18;62.62
80149;BME280;69473;42.426;26.644;2023-05-23T03:29:33;98603.28;;;16.24;62.62
80149;BME280;69473;42.426;26.644;2023-05-23T03:31:59;98596.25;;;16.26;62.32
80149;BME280;69473;42.426;26.644;2023-05-23T03:34:24;98607.91;;;16.43;61.28
80149;BME280;69473;42.426;26.644;2023-05-23T03:36:51;98603.31;;;16.49;61.35
80149;BME280;69473;42.426;26.644;2023-05-23T03:39:17;98605.97;;;16.48;61.19
80149;BME280;69473;42.426;26.644;2023-05-23T03:41:43;98605.44;;;16.38;62.33
80149;BME280;69473;42.426;26.644;2023-05-23T03:44:08;98603.97;;;16.56;61.17
80149;BME280;69473;42.426;26.644;2023-05-23T03:46:35;98613.59;;;16.55;61.58
80149;BME280;69473;42.426;26.644;2023-05-23T03:49:01;98605.47;;;16.63;61.56
80149;BME280;69473;42.426;26.644;2023-05-23T03:51:26;98606.81;;;16.76;60.53
80149;BME280;69473;42.426;26.644;2023-05-23T03:53:52;98608.53;;;16.77;60.46
80149;BME280;69473;42.426;26.644;2023-05-23T03:56:17;98607.66;;;16.77;60.77
80149;BME280;69473;42.426;26.644;2023-05-23T03:58:43;98606.81;;;16.76;61.48
80149;BME280;69473;42.426;26.644;2023-05-23T04:01:09;98604.78;;;16.84;59.82
80149;BME280;69473;42.426;26.644;2023-05-23T04:03:34;98609.91;;;16.88;60.90
80149;BME280;69473;42.426;26.644;2023-05-23T04:06:00;98616.06;;;16.87;60.87
80149;BME280;69473;42.426;26.644;2023-05-23T04:08:27;98618.97;;;16.77;61.11
80149;BME280;69473;42.426;26.644;2023-05-23T04:10:53;98625.72;;;16.84;61.09
80149;BME280;69473;42.426;26.644;2023-05-23T04:13:19;98616.97;;;16.85;60.52
80149;BME280;69473;42.426;26.644;2023-05-23T04:15:45;98615.84;;;16.93;61.08
80149;BME280;69473;42.426;26.644;2023-05-23T04:18:12;98622.22;;;16.85;61.71
80149;BME280;69473;42.426;26.644;2023-05-23T04:20:40;98620.56;;;16.81;61.07
80149;BME280;69473;42.426;26.644;2023-05-23T04:23:06;98622.22;;;16.85;60.79
80149;BME280;69473;42.426;26.644;2023-05-23T04:25:31;98615.34;;;16.81;61.71
80149;BME280;69473;42.426;26.644;2023-05-23T04:27:59;98620.28;;;16.91;60.46
80149;BME280;69473;42.426;26.644;2023-05-23T04:30:25;98615.41;;;17.05;59.87
80149;BME280;69473;42.426;26.644;2023-05-23T04:32:51;98620.06;;;16.97;61.35
80149;BME280;69473;42.426;26.644;2023-05-23T04:35:17;98618.03;;;17.05;60.20
80149;BME280;69473;42.426;26.644;2023-05-23T04:37:43;98617.66;;;16.91;61.62
80149;BME280;69473;42.426;26.644;2023-05-23T04:40:10;98621.91;;;16.95;60.77
80149;BME280;69473;42.426;26.644;2023-05-23T04:42:35;98622.22;;;16.85;62.12
80149;BME280;69473;42.426;26.644;2023-05-23T04:45:01;98621.91;;;16.95;61.41
80149;BME280;69473;42.426;26.644;2023-05-23T04:47:27;98625.28;;;16.97;61.44
80149;BME280;69473;42.426;26.644;2023-05-23T04:49:56;98626.78;;;17.04;61.13
80149;BME280;69473;42.426;26.644;2023-05-23T04:52:22;98620.69;;;17.03;60.53
80149;BME280;69473;42.426;26.644;2023-05-23T04:54:47;98623.53;;;16.97;61.90
80149;BME280;69473;42.426;26.644;2023-05-23T04:57:15;98625.50;;;16.91;61.92
80149;BME280;69473;42.426;26.644;2023-05-23T04:59:41;98630.22;;;17.06;61.50
80149;BME280;69473;42.426;26.644;2023-05-23T05:02:07;98616.84;;;17.39;59.61
80149;BME280;69473;42.426;26.644;2023-05-23T05:04:33;98633.00;;;17.50;60.25
80149;BME280;69473;42.426;26.644;2023-05-23T05:06:59;98629.53;;;17.49;59.67
80149;BME280;69473;42.426;26.644;2023-05-23T05:09:24;98623.22;;;17.55;59.92
80149;BME280;69473;42.426;26.644;2023-05-23T05:11:50;98628.94;;;17.66;59.30
80149;BME280;69473;42.426;26.644;2023-05-23T05:14:15;98630.28;;;17.53;59.35
80149;BME280;69473;42.426;26.644;2023-05-23T05:16:41;98628.78;;;17.69;60.27
80149;BME280;69473;42.426;26.644;2023-05-23T05:19:07;98641.09;;;17.91;58.65
80149;BME280;69473;42.426;26.644;2023-05-23T05:21:32;98644.41;;;17.96;58.68
80149;BME280;69473;42.426;26.644;2023-05-23T05:23:58;98641.44;;;18.05;58.74
80149;BME280;69473;42.426;26.644;2023-05-23T05:26:24;98649.31;;;18.05;58.47
80149;BME280;69473;42.426;26.644;2023-05-23T05:28:51;98648.56;;;18.02;58.23
80149;BME280;69473;42.426;26.644;2023-05-23T05:31:17;98644.19;;;18.02;58.36
80149;BME280;69473;42.426;26.644;2023-05-23T05:33:43;98646.84;;;18.00;58.44
80149;BME280;69473;42.426;26.644;2023-05-23T05:36:10;98650.22;;;18.04;58.61
80149;BME280;69473;42.426;26.644;2023-05-23T05:38:36;98655.25;;;18.10;58.65
80149;BME280;69473;42.426;26.644;2023-05-23T05:41:01;98649.06;;;18.11;58.25
80149;BME280;69473;42.426;26.644;2023-05-23T05:43:27;98654.19;;;18.14;57.88
80149;BME280;69473;42.426;26.644;2023-05-23T05:45:52;98664.69;;;18.14;58.10
80149;BME280;69473;42.426;26.644;2023-05-23T05:48:18;98647.38;;;18.10;58.97
80149;BME280;69473;42.426;26.644;2023-05-23T05:50:44;98656.81;;;18.14;58.19
80149;BME280;69473;42.426;26.644;2023-05-23T05:53:10;98650.53;;;18.18;58.28
80149;BME280;69473;42.426;26.644;2023-05-23T05:55:36;98657.38;;;18.22;59.34
80149;BME280;69473;42.426;26.644;2023-05-23T05:58:02;98653.09;;;18.20;59.22
80149;BME280;69473;42.426;26.644;2023-05-23T06:00:28;98655.41;;;18.28;58.45
80149;BME280;69473;42.426;26.644;2023-05-23T06:02:55;98653.97;;;18.20;58.82
80149;BME280;69473;42.426;26.644;2023-05-23T06:05:24;98656.22;;;18.30;59.15
80149;BME280;69473;42.426;26.644;2023-05-23T06:07:51;98654.44;;;18.30;58.60
80149;BME280;69473;42.426;26.644;2023-05-23T06:10:16;98649.31;;;18.27;59.05
80149;BME280;69473;42.426;26.644;2023-05-23T06:12:42;98653.88;;;18.44;58.58
80149;BME280;69473;42.426;26.644;2023-05-23T06:15:09;98664.94;;;18.52;57.98
80149;BME280;69473;42.426;26.644;2023-05-23T06:17:34;98646.88;;;18.66;57.58
80149;BME280;69473;42.426;26.644;2023-05-23T06:20:00;98651.13;;;18.91;56.68
80149;BME280;69473;42.426;26.644;2023-05-23T06:22:25;98651.84;;;18.95;57.65
80149;BME280;69473;42.426;26.644;2023-05-23T06:24:51;98655.84;;;19.03;56.74
80149;BME280;69473;42.426;26.644;2023-05-23T06:27:17;98660.97;;;19.06;57.04
80149;BME280;69473;42.426;26.644;2023-05-23T06:29:42;98665.94;;;19.12;57.47
80149;BME280;69473;42.426;26.644;2023-05-23T06:32:08;98662.81;;;19.25;56.22
80149;BME280;69473;42.426;26.644;2023-05-23T06:34:33;98663.59;;;19.27;56.36
80149;BME280;69473;42.426;26.644;2023-05-23T06:36:59;98659.63;;;19.37;56.53
80149;BME280;69473;42.426;26.644;2023-05-23T06:39:24;98660.69;;;19.53;56.05
80149;BME280;69473;42.426;26.644;2023-05-23T06:41:50;98656.53;;;21.50;51.44
80149;BME280;69473;42.426;26.644;2023-05-23T06:44:15;98649.44;;;21.33;51.20
80149;BME280;69473;42.426;26.644;2023-05-23T06:46:43;98657.13;;;20.68;53.48
80149;BME280;69473;42.426;26.644;2023-05-23T06:49:09;98642.75;;;20.75;52.43
80149;BME280;69473;42.426;26.644;2023-05-23T06:51:34;98653.19;;;20.59;53.71
80149;BME280;69473;42.426;26.644;2023-05-23T06:54:00;98651.16;;;20.45;53.71
80149;BME280;69473;42.426;26.644;2023-05-23T06:56:26;98653.09;;;20.42;53.57
80149;BME280;69473;42.426;26.644;2023-05-23T06:58:52;98657.41;;;20.62;52.71
80149;BME280;69473;42.426;26.644;2023-05-23T07:01:17;98654.56;;;20.66;52.40
80149;BME280;69473;42.426;26.644;2023-05-23T07:03:43;98652.00;;;20.65;52.24
80149;BME280;69473;42.426;26.644;2023-05-23T07:06:10;98643.19;;;20.66;51.61
80149;BME280;69473;42.426;26.644;2023-05-23T07:08:37;98642.66;;;20.59;52.05
80149;BME280;69473;42.426;26.644;2023-05-23T07:11:03;98637.06;;;20.65;51.92
80149;BME280;69473;42.426;26.644;2023-05-23T07:13:28;98641.63;;;20.62;52.43
80149;BME280;69473;42.426;26.644;2023-05-23T07:15:55;98638.09;;;20.63;52.12
80149;BME280;69473;42.426;26.644;2023-05-23T07:18:21;98631.09;;;20.62;51.54
80149;BME280;69473;42.426;26.644;2023-05-23T07:20:47;98636.22;;;20.82;50.61
80149;BME280;69473;42.426;26.644;2023-05-23T07:23:15;98630.63;;;21.06;50.24
80149;BME280;69473;42.426;26.644;2023-05-23T07:25:40;98636.81;;;21.57;49.44
80149;BME280;69473;42.426;26.644;2023-05-23T07:28:07;98635.72;;;24.16;43.69
80149;BME280;69473;42.426;26.644;2023-05-23T07:30:33;98619.22;;;27.61;37.26
80149;BME280;69473;42.426;26.644;2023-05-23T07:32:58;98616.69;;;28.48;35.38
80149;BME280;69473;42.426;26.644;2023-05-23T07:35:24;98617.63;;;26.55;37.65
80149;BME280;69473;42.426;26.644;2023-05-23T07:37:51;98616.00;;;24.49;41.58
80149;BME280;69473;42.426;26.644;2023-05-23T07:40:17;98622.25;;;23.92;44.04
80149;BME280;69473;42.426;26.644;2023-05-23T07:42:43;98618.66;;;24.35;42.93
80149;BME280;69473;42.426;26.644;2023-05-23T07:45:09;98623.25;;;24.18;43.39
80149;BME280;69473;42.426;26.644;2023-05-23T07:47:34;98623.06;;;24.22;43.36
80149;BME280;69473;42.426;26.644;2023-05-23T07:50:00;98631.22;;;24.04;42.98
80149;BME280;69473;42.426;26.644;2023-05-23T07:52:28;98630.69;;;23.56;43.63
80149;BME280;69473;42.426;26.644;2023-05-23T07:54:54;98635.41;;;23.51;43.78
80149;BME280;69473;42.426;26.644;2023-05-23T07:57:19;98640.22;;;23.59;44.96
80149;BME280;69473;42.426;26.644;2023-05-23T07:59:45;98641.41;;;24.10;43.54
80149;BME280;69473;42.426;26.644;2023-05-23T08:02:10;98627.38;;;24.37;42.78
80149;BME280;69473;42.426;26.644;2023-05-23T08:04:36;98628.28;;;24.90;42.31
80149;BME280;69473;42.426;26.644;2023-05-23T08:07:01;98630.31;;;24.99;41.92
80149;BME280;69473;42.426;26.644;2023-05-23T08:09:29;98618.88;;;24.86;40.67
80149;BME280;69473;42.426;26.644;2023-05-23T08:11:55;98628.16;;;24.79;40.32
80149;BME280;69473;42.426;26.644;2023-05-23T08:14:20;98625.09;;;24.04;41.92
80149;BME280;69473;42.426;26.644;2023-05-23T08:16:46;98626.66;;;24.20;41.67
80149;BME280;69473;42.426;26.644;2023-05-23T08:19:12;98626.41;;;24.38;41.21
80149;BME280;69473;42.426;26.644;2023-05-23T08:21:37;98633.66;;;24.22;40.77
80149;BME280;69473;42.426;26.644;2023-05-23T08:24:03;98625.84;;;24.33;40.93
80149;BME280;69473;42.426;26.644;2023-05-23T08:26:28;98624.06;;;24.60;40.80
80149;BME280;69473;42.426;26.644;2023-05-23T08:29:00;98625.22;;;24.96;40.35
80149;BME280;69473;42.426;26.644;2023-05-23T08:31:27;98621.97;;;24.65;40.08
80149;BME280;69473;42.426;26.644;2023-05-23T08:33:53;98633.59;;;24.50;40.42
80149;BME280;69473;42.426;26.644;2023-05-23T08:36:18;98632.56;;;24.11;40.70
80149;BME280;69473;42.426;26.644;2023-05-23T08:38:44;98623.06;;;24.22;40.48
80149;BME280;69473;42.426;26.644;2023-05-23T08:41:14;98624.72;;;24.37;40.90
80149;BME280;69473;42.426;26.644;2023-05-23T08:43:40;98618.63;;;24.22;40.81
80149;BME280;69473;42.426;26.644;2023-05-23T08:46:06;98616.22;;;24.32;40.37
80149;BME280;69473;42.426;26.644;2023-05-23T08:48:33;98622.47;;;24.31;40.42
80149;BME280;69473;42.426;26.644;2023-05-23T08:51:03;98630.84;;;24.10;41.45
80149;BME280;69473;42.426;26.644;2023-05-23T08:53:30;98628.44;;;23.93;41.04
80149;BME280;69473;42.426;26.644;2023-05-23T08:55:58;98622.38;;;23.77;40.93
80149;BME280;69473;42.426;26.644;2023-05-23T08:58:30;98625.03;;;23.62;42.04
80149;BME280;69473;42.426;26.644;2023-05-23T09:00:58;98633.50;;;23.67;41.68
80149;BME280;69473;42.426;26.644;2023-05-23T09:03:26;98631.47;;;23.72;41.91
80149;BME280;69473;42.426;26.644;2023-05-23T09:05:54;98629.38;;;23.78;42.40
80149;BME280;69473;42.426;26.644;2023-05-23T09:08:20;98638.63;;;23.99;41.89
80149;BME280;69473;42.426;26.644;2023-05-23T09:10:50;98633.53;;;23.96;41.02
80149;BME280;69473;42.426;26.644;2023-05-23T09:13:16;98631.41;;;24.15;40.03
80149;BME280;69473;42.426;26.644;2023-05-23T09:16:04;98635.03;;;24.00;40.90
80149;BME280;69473;42.426;26.644;2023-05-23T09:21:04;98635.03;;;23.57;41.91
80149;BME280;69473;42.426;26.644;2023-05-23T09:23:34;98633.13;;;23.59;41.90
80149;BME280;69473;42.426;26.644;2023-05-23T09:26:10;98644.06;;;23.67;42.11
80149;BME280;69473;42.426;26.644;2023-05-23T09:28:39;98642.38;;;23.66;42.07
80149;BME280;69473;42.426;26.644;2023-05-23T09:31:06;98636.16;;;23.53;42.03
80149;BME280;69473;42.426;26.644;2023-05-23T09:33:59;98638.22;;;23.48;42.57
80149;BME280;69473;42.426;26.644;2023-05-23T09:36:27;98636.53;;;23.47;42.03
80149;BME280;69473;42.426;26.644;2023-05-23T09:38:54;98637.66;;;23.57;41.74
80149;BME280;69473;42.426;26.644;2023-05-23T09:41:21;98639.41;;;23.72;41.74
80149;BME280;69473;42.426;26.644;2023-05-23T09:43:53;98629.09;;;23.68;41.87
80149;BME280;69473;42.426;26.644;2023-05-23T09:46:20;98642.03;;;23.72;42.78
80149;BME280;69473;42.426;26.644;2023-05-23T09:48:50;98633.25;;;23.86;42.35
80149;BME280;69473;42.426;26.644;2023-05-23T09:51:22;98643.72;;;24.02;41.33
80149;BME280;69473;42.426;26.644;2023-05-23T09:53:50;98638.69;;;24.12;42.51
80149;BME280;69473;42.426;26.644;2023-05-23T09:56:18;98631.69;;;24.38;40.88
80149;BME280;69473;42.426;26.644;2023-05-23T09:58:47;98630.84;;;24.52;42.00
80149;BME280;69473;42.426;26.644;2023-05-23T10:01:13;98621.78;;;24.69;41.60
80149;BME280;69473;42.426;26.644;2023-05-23T10:06:16;98629.03;;;24.92;40.84
80149;BME280;69473;42.426;26.644;2023-05-23T10:08:55;98638.22;;;25.26;39.72
80149;BME280;69473;42.426;26.644;2023-05-23T10:14:06;98621.00;;;25.06;39.83
80149;BME280;69473;42.426;26.644;2023-05-23T10:19:17;98637.50;;;24.57;41.19
80149;BME280;69473;42.426;26.644;2023-05-23T10:21:49;98630.22;;;24.34;40.82
80149;BME280;69473;42.426;26.644;2023-05-23T10:24:18;98629.19;;;24.22;41.23
80149;BME280;69473;42.426;26.644;2023-05-23T10:26:45;98627.16;;;24.13;41.82
80149;BME280;69473;42.426;26.644;2023-05-23T10:29:10;98631.03;;;24.07;41.93
80149;BME280;69473;42.426;26.644;2023-05-23T10:31:37;98634.81;;;24.03;41.98
80149;BME280;69473;42.426;26.644;2023-05-23T10:37:04;98630.34;;;24.59;40.36
80149;BME280;69473;42.426;26.644;2023-05-23T10:39:48;98630.94;;;24.50;40.71
80149;BME280;69473;42.426;26.644;2023-05-23T10:45:22;98628.09;;;24.39;41.34
80149;BME280;69473;42.426;26.644;2023-05-23T10:47:50;98628.16;;;24.25;40.87
80149;BME280;69473;42.426;26.644;2023-05-23T10:50:31;98626.13;;;24.01;40.97
80149;BME280;69473;42.426;26.644;2023-05-23T10:53:02;98628.94;;;24.12;41.30
80149;BME280;69473;42.426;26.644;2023-05-23T10:55:33;98621.78;;;24.14;40.95
80149;BME280;69473;42.426;26.644;2023-05-23T10:58:17;98623.38;;;24.71;40.41
80149;BME280;69473;42.426;26.644;2023-05-23T11:01:02;98621.81;;;24.94;39.68
80149;BME280;69473;42.426;26.644;2023-05-23T11:09:08;98623.38;;;25.49;38.84
80149;BME280;69473;42.426;26.644;2023-05-23T11:14:19;98612.97;;;25.59;39.50
80149;BME280;69473;42.426;26.644;2023-05-23T11:16:46;98613.91;;;25.20;39.63
80149;BME280;69473;42.426;26.644;2023-05-23T11:22:07;98617.75;;;24.76;41.08
80149;BME280;69473;42.426;26.644;2023-05-23T11:24:53;98609.53;;;24.93;40.22
80149;BME280;69473;42.426;26.644;2023-05-23T11:27:26;98615.97;;;24.89;40.90
80149;BME280;69473;42.426;26.644;2023-05-23T11:32:30;98620.13;;;24.53;41.13
80149;BME280;69473;42.426;26.644;2023-05-23T11:35:02;98611.34;;;24.53;40.95
80149;BME280;69473;42.426;26.644;2023-05-23T11:37:29;98612.00;;;24.56;41.04
80149;BME280;69473;42.426;26.644;2023-05-23T11:39:56;98616.88;;;24.62;40.97
80149;BME280;69473;42.426;26.644;2023-05-23T11:42:22;98611.22;;;24.94;42.02
80149;BME280;69473;42.426;26.644;2023-05-23T11:44:49;98614.25;;;25.28;41.59
80149;BME280;69473;42.426;26.644;2023-05-23T11:47:16;98610.00;;;25.13;39.70
80149;BME280;69473;42.426;26.644;2023-05-23T11:49:45;98602.97;;;24.86;40.67
80149;BME280;69473;42.426;26.644;2023-05-23T11:52:13;98602.28;;;24.70;39.71
80149;BME280;69473;42.426;26.644;2023-05-23T11:54:42;98607.88;;;24.38;40.55
80149;BME280;69473;42.426;26.644;2023-05-23T11:57:09;98603.09;;;24.57;40.67
80149;BME280;69473;42.426;26.644;2023-05-23T11:59:35;98600.38;;;24.72;41.55
80149;BME280;69473;42.426;26.644;2023-05-23T12:02:05;98602.69;;;24.63;40.16
80149;BME280;69473;42.426;26.644;2023-05-23T12:04:33;98603.19;;;24.56;41.63
80149;BME280;69473;42.426;26.644;2023-05-23T12:07:03;98597.19;;;24.66;41.39
80149;BME280;69473;42.426;26.644;2023-05-23T12:09:30;98601.84;;;24.76;41.29
80149;BME280;69473;42.426;26.644;2023-05-23T12:11:56;98606.78;;;25.07;41.76
80149;BME280;69473;42.426;26.644;2023-05-23T12:14:22;98589.41;;;25.29;39.87
80149;BME280;69473;42.426;26.644;2023-05-23T12:16:47;98594.47;;;25.57;39.86
80149;BME280;69473;42.426;26.644;2023-05-23T12:19:15;98595.16;;;25.61;38.71
80149;BME280;69473;42.426;26.644;2023-05-23T12:21:46;98586.09;;;25.89;40.05
80149;BME280;69473;42.426;26.644;2023-05-23T12:26:45;98586.25;;;25.24;40.62
80149;BME280;69473;42.426;26.644;2023-05-23T12:29:11;98588.59;;;24.63;41.44
80149;BME280;69473;42.426;26.644;2023-05-23T12:31:36;98586.19;;;24.18;42.71
80149;BME280;69473;42.426;26.644;2023-05-23T12:34:03;98587.25;;;23.74;43.52
80149;BME280;69473;42.426;26.644;2023-05-23T12:36:29;98591.41;;;23.50;43.02
80149;BME280;69473;42.426;26.644;2023-05-23T12:39:02;98596.03;;;23.32;43.72
80149;BME280;69473;42.426;26.644;2023-05-23T12:41:29;98595.91;;;23.19;42.13
80149;BME280;69473;42.426;26.644;2023-05-23T12:43:56;98589.50;;;23.09;43.53
80149;BME280;69473;42.426;26.644;2023-05-23T12:46:26;98592.31;;;23.20;42.50
80149;BME280;69473;42.426;26.644;2023-05-23T12:48:53;98581.38;;;23.12;42.26
80149;BME280;69473;42.426;26.644;2023-05-23T12:51:20;98581.75;;;23.20;42.85
80149;BME280;69473;42.426;26.644;2023-05-23T12:53:45;98576.13;;;23.55;42.44
80149;BME280;69473;42.426;26.644;2023-05-23T12:56:11;98578.22;;;23.91;41.02
80149;BME280;69473;42.426;26.644;2023-05-23T12:58:37;98568.63;;;24.17;41.03
80149;BME280;69473;42.426;26.644;2023-05-23T13:01:02;98579.13;;;24.46;41.43
80149;BME280;69473;42.426;26.644;2023-05-23T13:03:28;98567.13;;;24.80;41.91
80149;BME280;69473;42.426;26.644;2023-05-23T13:05:58;98566.72;;;24.99;41.75
80149;BME280;69473;42.426;26.644;2023-05-23T13:08:25;98570.34;;;25.37;41.10
80149;BME280;69473;42.426;26.644;2023-05-23T13:10:55;98572.75;;;25.52;41.04
80149;BME280;69473;42.426;26.644;2023-05-23T13:13:21;98568.94;;;24.93;40.32
80149;BME280;69473;42.426;26.644;2023-05-23T13:15:47;98566.13;;;24.29;42.53
80149;BME280;69473;42.426;26.644;2023-05-23T13:18:13;98588.22;;;24.01;42.92
80149;BME280;69473;42.426;26.644;2023-05-23T13:20:38;98596.31;;;23.70;42.80
80149;BME280;69473;42.426;26.644;2023-05-23T13:23:04;98613.09;;;23.26;43.89
80149;BME280;69473;42.426;26.644;2023-05-23T13:25:30;98621.41;;;23.06;43.80
80149;BME280;69473;42.426;26.644;2023-05-23T13:27:55;98619.03;;;22.86;45.21